createdAt,value
2017-12-31T00:00:30.765Z,7.40
2017-12-31T00:02:58.235Z,7.13
2017-12-31T00:05:25.698Z,7.53
2017-12-31T00:07:53.168Z,7.57
2017-12-31T00:10:20.626Z,7.10
2017-12-31T00:12:48.089Z,6.27
2017-12-31T00:15:15.559Z,7.80
2017-12-31T00:17:43.019Z,5.67
2017-12-31T00:20:10.516Z,7.43
2017-12-31T00:22:37.982Z,7.27
2017-12-31T00:25:05.438Z,7.23
2017-12-31T00:27:32.918Z,6.77
2017-12-31T00:30:00.388Z,6.20
2017-12-31T00:32:27.851Z,5.30
2017-12-31T00:34:55.326Z,6.67
2017-12-31T00:37:23.579Z,6.03
2017-12-31T00:39:51.030Z,6.43
2017-12-31T00:42:18.518Z,6.30
2017-12-31T00:44:46.734Z,5.70
2017-12-31T00:47:14.227Z,5.93
2017-12-31T00:49:41.698Z,5.87
2017-12-31T00:52:09.927Z,5.23
2017-12-31T00:54:37.393Z,5.27
2017-12-31T00:57:04.869Z,6.50
2017-12-31T00:59:32.341Z,6.50
2017-12-31T01:02:00.574Z,5.70
2017-12-31T01:04:28.110Z,5.37
2017-12-31T01:06:55.618Z,5.73
2017-12-31T01:09:23.099Z,8.20
2017-12-31T01:11:51.337Z,5.63
2017-12-31T01:14:18.813Z,5.63
2017-12-31T01:16:46.277Z,6.00
2017-12-31T01:19:14.530Z,5.53
2017-12-31T01:21:42.006Z,5.70
2017-12-31T01:24:10.235Z,6.53
2017-12-31T01:26:37.716Z,5.70
2017-12-31T01:29:05.938Z,5.80
2017-12-31T01:31:33.411Z,6.07
2017-12-31T01:34:00.886Z,7.13
2017-12-31T01:36:28.361Z,5.43
2017-12-31T01:38:55.837Z,5.10
2017-12-31T01:41:24.066Z,5.40
2017-12-31T01:43:51.608Z,5.00
2017-12-31T01:46:19.056Z,5.10
2017-12-31T01:48:58.394Z,4.30
2017-12-31T01:51:25.853Z,3.40
2017-12-31T01:53:53.338Z,3.87
2017-12-31T01:56:20.805Z,3.77
2017-12-31T01:58:48.258Z,3.43
2017-12-31T02:01:15.726Z,2.90
2017-12-31T02:03:43.181Z,2.67
2017-12-31T02:06:10.671Z,3.53
2017-12-31T02:08:38.893Z,3.10
2017-12-31T02:11:06.370Z,3.10
2017-12-31T02:13:33.837Z,2.80
2017-12-31T02:16:01.290Z,2.60
2017-12-31T02:18:28.766Z,2.87
2017-12-31T02:20:57.010Z,2.83
2017-12-31T02:23:24.490Z,2.40
2017-12-31T02:25:51.946Z,2.80
2017-12-31T02:28:20.182Z,3.27
2017-12-31T02:30:47.650Z,3.00
2017-12-31T02:33:15.126Z,3.37
2017-12-31T02:35:43.352Z,2.87
2017-12-31T02:38:10.827Z,2.20
2017-12-31T02:40:38.285Z,2.77
2017-12-31T02:43:05.744Z,2.60
2017-12-31T02:45:33.227Z,2.80
2017-12-31T02:48:00.693Z,2.63
2017-12-31T02:50:28.930Z,2.57
2017-12-31T02:52:56.385Z,2.70
2017-12-31T02:55:23.881Z,2.80
2017-12-31T02:57:52.101Z,2.77
2017-12-31T03:00:19.600Z,2.67
2017-12-31T03:02:47.074Z,3.00
2017-12-31T03:05:15.290Z,3.23
2017-12-31T03:07:42.774Z,2.80
2017-12-31T03:10:11.734Z,3.00
2017-12-31T03:12:39.201Z,2.40
2017-12-31T03:15:06.654Z,3.10
2017-12-31T03:17:34.162Z,3.57
2017-12-31T03:20:01.585Z,3.00
2017-12-31T03:22:29.054Z,3.83
2017-12-31T03:24:56.510Z,2.87
2017-12-31T03:27:23.970Z,3.80
2017-12-31T03:29:51.438Z,4.40
2017-12-31T03:32:19.654Z,3.80
2017-12-31T03:34:47.142Z,4.70
2017-12-31T03:37:14.597Z,4.23
2017-12-31T03:39:42.073Z,4.70
2017-12-31T03:42:09.542Z,4.83
2017-12-31T03:44:37.790Z,5.10
2017-12-31T03:47:05.262Z,7.13
2017-12-31T03:49:32.746Z,5.93
2017-12-31T03:52:00.238Z,5.60
2017-12-31T03:54:27.713Z,5.33
2017-12-31T03:56:55.153Z,5.90
2017-12-31T03:59:22.634Z,4.33
2017-12-31T04:01:50.086Z,5.80
2017-12-31T04:04:17.565Z,6.17
2017-12-31T04:06:45.794Z,5.53
2017-12-31T04:09:13.278Z,6.97
2017-12-31T04:11:40.749Z,6.30
2017-12-31T04:14:08.970Z,5.80
2017-12-31T04:16:36.446Z,6.83
2017-12-31T04:19:03.902Z,7.13
2017-12-31T04:21:31.381Z,6.00
2017-12-31T04:23:58.840Z,5.50
2017-12-31T04:26:26.330Z,6.17
2017-12-31T04:28:53.802Z,5.10
2017-12-31T04:31:21.277Z,7.37
2017-12-31T04:33:48.742Z,6.23
2017-12-31T04:36:16.221Z,5.77
2017-12-31T04:38:43.685Z,6.33
2017-12-31T04:41:11.174Z,5.60
2017-12-31T04:43:38.634Z,4.57
2017-12-31T04:46:06.094Z,6.17
2017-12-31T04:48:33.574Z,5.00
2017-12-31T04:51:01.030Z,5.00
2017-12-31T04:53:28.517Z,4.93
2017-12-31T04:55:55.981Z,4.80
2017-12-31T04:58:23.463Z,4.60
2017-12-31T05:00:50.918Z,4.93
2017-12-31T05:03:18.370Z,4.97
2017-12-31T05:05:46.619Z,5.80
2017-12-31T05:08:14.089Z,4.00
2017-12-31T05:10:42.329Z,4.63
2017-12-31T05:13:09.805Z,4.27
2017-12-31T05:15:37.277Z,5.73
2017-12-31T05:18:05.497Z,4.97
2017-12-31T05:20:32.977Z,4.17
2017-12-31T05:23:00.438Z,5.27
2017-12-31T05:25:27.914Z,4.13
2017-12-31T05:27:55.389Z,4.43
2017-12-31T05:30:23.619Z,3.60
2017-12-31T05:32:51.122Z,3.50
2017-12-31T05:35:19.318Z,3.03
2017-12-31T05:37:46.794Z,3.47
2017-12-31T05:40:14.294Z,4.23
2017-12-31T05:42:42.529Z,5.53
2017-12-31T05:45:10.002Z,4.30
2017-12-31T05:47:37.466Z,3.40
2017-12-31T05:50:04.942Z,2.90
2017-12-31T05:52:33.169Z,3.97
2017-12-31T05:55:00.642Z,3.80
2017-12-31T05:57:28.114Z,4.57
2017-12-31T05:59:55.594Z,3.67
2017-12-31T06:02:23.828Z,3.43
2017-12-31T06:04:51.281Z,4.27
2017-12-31T06:07:18.757Z,3.17
2017-12-31T06:09:46.217Z,3.40
2017-12-31T06:12:13.777Z,3.33
2017-12-31T06:14:41.245Z,3.23
2017-12-31T06:17:09.466Z,3.63
2017-12-31T06:19:36.942Z,3.13
2017-12-31T06:22:04.414Z,3.13
2017-12-31T06:24:33.381Z,2.90
2017-12-31T06:27:00.863Z,3.63
2017-12-31T06:29:28.321Z,2.97
2017-12-31T06:31:55.778Z,3.50
2017-12-31T06:34:23.262Z,2.43
2017-12-31T06:36:50.718Z,3.07
2017-12-31T06:39:18.199Z,3.10
2017-12-31T06:41:45.655Z,3.50
2017-12-31T06:44:13.121Z,2.93
2017-12-31T06:46:40.605Z,3.67
2017-12-31T06:49:08.082Z,3.10
2017-12-31T06:51:35.563Z,3.00
2017-12-31T06:54:03.784Z,3.47
2017-12-31T06:56:31.249Z,2.10
2017-12-31T06:58:58.714Z,3.20
2017-12-31T07:01:26.186Z,3.80
2017-12-31T07:03:54.415Z,2.43
2017-12-31T07:06:21.889Z,3.20
2017-12-31T07:08:49.365Z,2.63
2017-12-31T07:11:16.842Z,2.23
2017-12-31T07:13:45.070Z,2.63
2017-12-31T07:16:12.562Z,2.57
2017-12-31T07:18:40.026Z,3.40
2017-12-31T07:21:08.266Z,2.80
2017-12-31T07:23:35.726Z,2.43
2017-12-31T07:26:03.198Z,2.10
2017-12-31T07:28:30.646Z,2.33
2017-12-31T07:30:58.101Z,1.80
2017-12-31T07:33:25.581Z,2.50
2017-12-31T07:35:53.811Z,2.60
2017-12-31T07:38:21.390Z,2.37
2017-12-31T07:40:48.850Z,2.60
2017-12-31T07:43:16.347Z,2.43
2017-12-31T07:45:44.587Z,2.40
2017-12-31T07:48:12.108Z,2.60
2017-12-31T07:50:40.293Z,2.00
2017-12-31T07:53:07.781Z,2.53
2017-12-31T07:55:36.006Z,2.03
2017-12-31T07:58:03.467Z,2.20
2017-12-31T08:00:30.942Z,2.20
2017-12-31T08:02:58.418Z,2.50
2017-12-31T08:05:25.902Z,2.30
2017-12-31T08:07:53.357Z,2.47
2017-12-31T08:10:20.835Z,2.03
2017-12-31T08:12:48.294Z,2.87
2017-12-31T08:15:15.769Z,2.60
2017-12-31T08:17:43.218Z,2.33
2017-12-31T08:20:10.690Z,2.90
2017-12-31T08:22:38.150Z,2.60
2017-12-31T08:25:05.617Z,2.37
2017-12-31T08:27:33.963Z,2.53
2017-12-31T08:30:01.426Z,2.23
2017-12-31T08:32:28.906Z,2.43
2017-12-31T08:34:56.484Z,2.50
2017-12-31T08:37:23.955Z,2.50
2017-12-31T08:39:52.182Z,2.67
2017-12-31T08:42:19.643Z,3.60
2017-12-31T08:44:47.962Z,2.33
2017-12-31T08:47:16.206Z,2.40
2017-12-31T08:49:43.674Z,2.07
2017-12-31T08:52:11.146Z,2.60
2017-12-31T08:54:39.377Z,2.37
2017-12-31T08:57:06.865Z,2.93
2017-12-31T08:59:34.314Z,2.53
2017-12-31T09:02:01.794Z,2.80
2017-12-31T09:04:30.014Z,2.20
2017-12-31T09:06:57.496Z,2.40
2017-12-31T09:09:24.955Z,2.90
2017-12-31T09:11:52.430Z,2.87
2017-12-31T09:14:20.667Z,2.57
2017-12-31T09:16:48.122Z,2.57
2017-12-31T09:19:15.598Z,3.13
2017-12-31T09:21:43.054Z,2.50
2017-12-31T09:24:10.535Z,2.53
2017-12-31T09:26:38.840Z,1.93
2017-12-31T09:29:06.306Z,2.63
2017-12-31T09:31:33.758Z,2.30
2017-12-31T09:34:01.242Z,2.37
2017-12-31T09:36:28.693Z,2.37
2017-12-31T09:38:56.185Z,2.27
2017-12-31T09:41:24.409Z,2.57
2017-12-31T09:43:51.879Z,1.80
2017-12-31T09:46:19.350Z,2.33
2017-12-31T09:48:46.818Z,1.97
2017-12-31T09:51:14.274Z,2.17
2017-12-31T09:53:41.757Z,2.10
2017-12-31T09:56:09.997Z,2.63
2017-12-31T09:58:37.467Z,2.20
2017-12-31T10:01:04.934Z,2.10
2017-12-31T10:03:33.171Z,2.20
2017-12-31T10:06:00.650Z,2.60
2017-12-31T10:08:28.126Z,1.70
2017-12-31T10:10:56.350Z,2.13
2017-12-31T10:13:23.821Z,2.07
2017-12-31T10:15:51.290Z,2.33
2017-12-31T10:18:18.758Z,1.70
2017-12-31T10:20:46.991Z,2.30
2017-12-31T10:23:14.481Z,2.07
2017-12-31T10:25:41.939Z,2.37
2017-12-31T10:28:09.397Z,2.83
2017-12-31T10:30:36.865Z,2.23
2017-12-31T10:33:05.109Z,1.97
2017-12-31T10:35:32.563Z,1.90
2017-12-31T10:38:00.038Z,2.13
2017-12-31T10:40:27.542Z,2.27
2017-12-31T10:42:55.019Z,2.00
2017-12-31T10:45:22.469Z,2.10
2017-12-31T10:47:49.941Z,2.17
2017-12-31T10:50:17.412Z,2.30
2017-12-31T10:52:44.925Z,2.60
2017-12-31T10:55:12.414Z,2.93
2017-12-31T10:57:39.849Z,1.77
2017-12-31T11:09:32.597Z,2.23
2017-12-31T11:12:00.066Z,1.70
2017-12-31T11:14:28.302Z,2.30
2017-12-31T11:16:55.781Z,1.70
2017-12-31T11:19:23.230Z,1.90
2017-12-31T11:21:51.471Z,1.80
2017-12-31T11:24:18.933Z,1.83
2017-12-31T11:26:46.402Z,2.43
2017-12-31T11:29:13.858Z,1.73
2017-12-31T11:31:41.343Z,2.47
2017-12-31T11:34:08.823Z,2.10
2017-12-31T11:36:37.038Z,1.83
2017-12-31T11:39:04.522Z,2.20
2017-12-31T11:41:33.065Z,2.00
2017-12-31T11:44:00.525Z,2.27
2017-12-31T11:46:28.005Z,2.07
2017-12-31T11:48:55.450Z,1.87
2017-12-31T11:51:22.935Z,2.37
2017-12-31T11:53:51.926Z,2.37
2017-12-31T11:56:19.393Z,1.60
2017-12-31T11:58:48.508Z,2.20
2017-12-31T12:01:15.998Z,3.03
2017-12-31T12:03:43.470Z,1.67
2017-12-31T12:06:10.932Z,1.80
2017-12-31T12:08:38.406Z,1.93
2017-12-31T12:11:06.834Z,2.20
2017-12-31T12:13:34.321Z,2.20
2017-12-31T12:16:01.763Z,1.57
2017-12-31T12:18:29.230Z,2.07
2017-12-31T12:20:56.715Z,2.17
2017-12-31T12:23:24.169Z,2.07
2017-12-31T12:25:51.625Z,2.00
2017-12-31T12:28:19.102Z,1.87
2017-12-31T12:30:47.324Z,2.40
2017-12-31T12:33:14.790Z,1.57
2017-12-31T12:35:42.261Z,2.00
2017-12-31T12:38:09.729Z,1.70
2017-12-31T12:40:37.207Z,1.87
2017-12-31T12:43:05.431Z,2.00
2017-12-31T12:45:32.981Z,1.93
2017-12-31T12:48:00.458Z,1.97
2017-12-31T12:50:28.705Z,1.77
2017-12-31T12:52:56.185Z,1.67
2017-12-31T12:55:23.637Z,1.60
2017-12-31T12:57:51.132Z,1.53
2017-12-31T13:00:19.374Z,2.60
2017-12-31T13:02:46.829Z,1.83
2017-12-31T13:05:14.306Z,1.90
2017-12-31T13:07:41.779Z,1.50
2017-12-31T13:10:10.017Z,1.50
2017-12-31T13:12:37.472Z,1.70
2017-12-31T13:15:04.965Z,1.63
2017-12-31T13:17:33.182Z,1.47
2017-12-31T13:20:00.681Z,1.70
2017-12-31T13:22:28.285Z,2.10
2017-12-31T13:24:55.694Z,2.30
2017-12-31T13:27:23.247Z,1.73
2017-12-31T13:29:50.710Z,2.07
2017-12-31T13:32:18.185Z,1.80
2017-12-31T13:34:46.434Z,2.07
2017-12-31T13:37:13.893Z,1.70
2017-12-31T13:39:41.378Z,1.60
2017-12-31T13:42:09.626Z,1.13
2017-12-31T13:44:37.085Z,2.23
2017-12-31T13:47:04.558Z,1.80
2017-12-31T13:49:32.802Z,1.40
2017-12-31T13:52:00.286Z,2.50
2017-12-31T13:54:28.519Z,1.70
2017-12-31T13:56:55.972Z,1.60
2017-12-31T13:59:23.462Z,1.70
2017-12-31T14:01:50.936Z,2.00
2017-12-31T14:04:19.170Z,2.17
2017-12-31T14:06:46.638Z,2.47
2017-12-31T14:09:14.126Z,1.87
2017-12-31T14:11:42.363Z,1.70
2017-12-31T14:14:09.830Z,1.40
2017-12-31T14:16:37.318Z,2.50
2017-12-31T14:19:05.546Z,1.80
2017-12-31T14:21:33.058Z,2.53
2017-12-31T14:24:00.517Z,4.20
2017-12-31T14:26:27.993Z,1.80
2017-12-31T14:28:55.451Z,2.90
2017-12-31T14:31:22.925Z,2.53
2017-12-31T14:33:50.381Z,2.37
2017-12-31T14:36:17.917Z,17.17
2017-12-31T14:38:45.370Z,2.10
2017-12-31T14:41:12.866Z,3.33
2017-12-31T14:43:40.361Z,2.77
2017-12-31T14:46:08.590Z,3.87
2017-12-31T14:48:36.091Z,2.87
2017-12-31T14:51:04.341Z,2.90
2017-12-31T14:53:31.825Z,3.40
2017-12-31T14:55:59.290Z,3.77
2017-12-31T14:58:26.761Z,2.63
2017-12-31T15:00:54.260Z,1.63
2017-12-31T15:03:21.738Z,1.80
2017-12-31T15:05:49.990Z,2.10
2017-12-31T15:08:17.458Z,2.03
2017-12-31T15:10:44.914Z,1.50
2017-12-31T15:13:12.394Z,1.73
2017-12-31T15:15:39.858Z,2.00
2017-12-31T15:18:07.331Z,3.50
2017-12-31T15:20:34.797Z,5.63
2017-12-31T15:23:02.297Z,1.80
2017-12-31T15:25:29.771Z,3.20
2017-12-31T15:27:57.993Z,2.50
2017-12-31T15:30:25.455Z,2.70
2017-12-31T15:32:52.959Z,2.17
2017-12-31T15:35:21.291Z,2.30
2017-12-31T15:37:48.761Z,1.50
2017-12-31T15:40:16.247Z,2.27
2017-12-31T15:42:44.473Z,2.07
2017-12-31T15:45:11.970Z,1.80
2017-12-31T15:47:39.424Z,8.67
2017-12-31T15:50:06.898Z,6.37
2017-12-31T15:52:35.132Z,2.30
2017-12-31T15:55:02.599Z,2.30
2017-12-31T15:57:30.834Z,2.67
2017-12-31T15:59:58.289Z,2.20
2017-12-31T16:02:25.782Z,10.20
2017-12-31T16:04:53.250Z,2.60
2017-12-31T16:07:21.486Z,5.77
2017-12-31T16:09:48.965Z,2.17
2017-12-31T16:12:16.409Z,3.00
2017-12-31T16:14:43.870Z,2.20
2017-12-31T16:17:11.360Z,2.40
2017-12-31T16:19:38.835Z,1.90
2017-12-31T16:22:07.073Z,2.03
2017-12-31T16:24:34.541Z,1.80
2017-12-31T16:27:02.027Z,1.93
2017-12-31T16:29:29.488Z,2.10
2017-12-31T16:31:56.970Z,1.90
2017-12-31T16:34:24.428Z,1.80
2017-12-31T16:36:51.903Z,1.63
2017-12-31T16:39:19.383Z,1.90
2017-12-31T16:41:46.838Z,1.63
2017-12-31T16:44:14.318Z,2.20
2017-12-31T16:46:41.790Z,2.37
2017-12-31T16:49:09.263Z,3.57
2017-12-31T16:51:36.721Z,3.63
2017-12-31T16:54:04.190Z,2.23
2017-12-31T16:56:31.665Z,5.27
2017-12-31T16:58:59.142Z,2.30
2017-12-31T17:01:27.386Z,4.17
2017-12-31T17:03:54.853Z,21.57
2017-12-31T17:06:22.338Z,6.27
2017-12-31T17:08:50.570Z,12.97
2017-12-31T17:11:18.046Z,6.10
2017-12-31T17:13:45.522Z,11.40
2017-12-31T17:16:13.770Z,9.33
2017-12-31T17:18:41.238Z,4.57
2017-12-31T17:21:08.785Z,3.93
2017-12-31T17:23:36.261Z,4.50
2017-12-31T17:26:04.280Z,2.47
2017-12-31T17:28:31.755Z,3.40
2017-12-31T17:31:00.059Z,8.03
2017-12-31T17:33:28.290Z,3.27
2017-12-31T17:35:56.523Z,4.60
2017-12-31T17:38:24.749Z,3.90
2017-12-31T17:40:52.237Z,4.30
2017-12-31T17:43:19.696Z,3.37
2017-12-31T17:45:47.157Z,2.63
2017-12-31T17:48:15.394Z,4.90
2017-12-31T17:50:42.877Z,5.30
2017-12-31T17:53:10.340Z,5.57
2017-12-31T17:55:38.804Z,10.77
2017-12-31T17:58:06.263Z,4.57
2017-12-31T18:00:33.725Z,5.20
2017-12-31T18:03:01.953Z,9.13
2017-12-31T18:05:29.410Z,3.60
2017-12-31T18:07:56.890Z,4.07
2017-12-31T18:10:24.349Z,3.70
2017-12-31T18:12:51.829Z,5.67
2017-12-31T18:15:19.298Z,3.37
2017-12-31T18:17:47.520Z,3.37
2017-12-31T18:20:15.901Z,2.97
2017-12-31T18:22:43.381Z,3.57
2017-12-31T18:25:10.857Z,3.90
2017-12-31T18:27:39.090Z,3.80
2017-12-31T18:30:06.556Z,3.07
2017-12-31T18:32:34.027Z,2.77
2017-12-31T18:35:01.497Z,3.40
2017-12-31T18:37:28.950Z,2.40
2017-12-31T18:39:56.430Z,3.07
2017-12-31T18:42:24.658Z,2.67
2017-12-31T18:44:52.129Z,2.60
2017-12-31T18:47:19.597Z,3.40
2017-12-31T18:49:47.059Z,2.20
2017-12-31T18:52:15.302Z,1.93
2017-12-31T18:54:42.753Z,2.23
2017-12-31T18:57:10.229Z,2.00
2017-12-31T18:59:37.710Z,2.00
2017-12-31T19:02:05.933Z,2.00
2017-12-31T19:04:33.421Z,2.63
2017-12-31T19:07:00.906Z,2.43
2017-12-31T19:09:29.142Z,2.73
2017-12-31T19:11:56.662Z,2.30
2017-12-31T19:14:24.101Z,1.97
2017-12-31T19:16:51.586Z,2.83
2017-12-31T19:19:19.053Z,4.17
2017-12-31T19:21:46.519Z,2.37
2017-12-31T19:24:14.004Z,3.77
2017-12-31T19:26:41.457Z,1.90
2017-12-31T19:29:08.930Z,1.40
2017-12-31T19:31:37.142Z,1.33
2017-12-31T19:34:04.610Z,2.03
2017-12-31T19:36:32.087Z,1.60
2017-12-31T19:38:59.534Z,1.50
2017-12-31T19:41:27.001Z,1.20
2017-12-31T19:43:55.220Z,1.40
2017-12-31T19:46:22.689Z,1.10
2017-12-31T19:48:50.161Z,1.40
2017-12-31T19:51:17.605Z,1.60
2017-12-31T19:53:45.070Z,1.60
2017-12-31T19:56:12.537Z,1.60
2017-12-31T19:58:40.004Z,1.60
2017-12-31T20:01:07.457Z,1.40
2017-12-31T20:03:34.943Z,2.13
2017-12-31T20:06:03.163Z,2.03
2017-12-31T20:08:30.637Z,2.23
2017-12-31T20:10:58.103Z,8.80
2017-12-31T20:13:25.552Z,2.23
2017-12-31T20:15:53.017Z,11.57
2017-12-31T20:18:20.470Z,2.90
2017-12-31T20:20:47.941Z,11.17
2017-12-31T20:23:15.412Z,5.63
2017-12-31T20:25:43.673Z,16.87
2017-12-31T20:28:11.141Z,9.43
2017-12-31T20:30:39.410Z,11.03
2017-12-31T20:33:06.978Z,8.30
2017-12-31T20:35:35.204Z,9.33
2017-12-31T20:38:02.669Z,6.00
2017-12-31T20:40:30.146Z,13.47
2017-12-31T20:42:57.613Z,17.53
2017-12-31T20:45:25.091Z,4.93
2017-12-31T20:47:53.323Z,1.80
2017-12-31T20:50:20.783Z,2.60
2017-12-31T20:52:48.246Z,5.90
2017-12-31T20:55:15.723Z,2.80
2017-12-31T20:57:44.037Z,3.53
2017-12-31T21:00:11.508Z,2.97
2017-12-31T21:02:39.006Z,1.63
2017-12-31T21:05:07.970Z,1.20
2017-12-31T21:07:35.436Z,2.00
2017-12-31T21:10:02.897Z,1.60
2017-12-31T21:12:31.138Z,1.30
2017-12-31T21:14:58.590Z,2.03
2017-12-31T21:17:26.049Z,2.67
2017-12-31T21:19:53.525Z,1.93
2017-12-31T21:22:20.987Z,2.37
2017-12-31T21:24:48.438Z,2.53
2017-12-31T21:27:15.908Z,4.30
2017-12-31T21:29:43.354Z,3.13
2017-12-31T21:32:10.828Z,1.83
2017-12-31T21:34:39.042Z,2.53
2017-12-31T21:37:06.505Z,6.90
2017-12-31T21:39:33.977Z,3.30
2017-12-31T21:42:01.443Z,2.80
2017-12-31T21:44:28.905Z,2.70
2017-12-31T21:46:56.389Z,11.73
2017-12-31T21:49:24.602Z,2.53
2017-12-31T21:51:52.066Z,1.90
2017-12-31T21:54:19.543Z,2.10
2017-12-31T21:56:47.010Z,2.07
2017-12-31T21:59:14.478Z,2.60
2017-12-31T22:01:41.950Z,2.93
2017-12-31T22:04:10.174Z,2.00
2017-12-31T22:06:37.651Z,1.93
2017-12-31T22:09:05.114Z,1.00
2017-12-31T22:11:32.582Z,1.60
2017-12-31T22:14:00.051Z,1.47
2017-12-31T22:16:27.533Z,1.40
2017-12-31T22:18:54.977Z,1.43
2017-12-31T22:21:23.236Z,1.80
2017-12-31T22:23:50.795Z,1.30
2017-12-31T22:26:19.022Z,2.03
2017-12-31T22:28:46.539Z,1.97
2017-12-31T22:31:14.778Z,1.30
2017-12-31T22:33:42.257Z,1.70
2017-12-31T22:36:09.702Z,1.90
2017-12-31T22:38:37.190Z,1.60
2017-12-31T22:41:05.405Z,2.30
2017-12-31T22:43:32.886Z,1.77
2017-12-31T22:46:00.348Z,2.10
2017-12-31T22:48:27.818Z,1.90
2017-12-31T22:50:56.054Z,1.97
2017-12-31T22:53:23.524Z,2.53
2017-12-31T22:55:50.986Z,2.37
2017-12-31T22:58:18.446Z,3.23
2017-12-31T23:00:45.906Z,3.50
2017-12-31T23:03:14.142Z,20.27
2017-12-31T23:05:41.618Z,15.80
2017-12-31T23:08:09.094Z,13.73
2017-12-31T23:10:36.563Z,18.13
2017-12-31T23:13:04.781Z,28.13
2017-12-31T23:15:32.259Z,24.90
2017-12-31T23:17:59.722Z,28.57
2017-12-31T23:20:27.174Z,36.10
2017-12-31T23:22:54.649Z,31.40
2017-12-31T23:25:22.114Z,24.00
2017-12-31T23:27:49.671Z,25.30
2017-12-31T23:30:17.903Z,18.70
2017-12-31T23:35:19.226Z,12.70
2017-12-31T23:37:47.482Z,9.07
2017-12-31T23:40:14.945Z,7.43
2017-12-31T23:42:42.421Z,7.93
2017-12-31T23:45:10.670Z,8.23
2017-12-31T23:47:38.910Z,8.23
2017-12-31T23:50:06.386Z,9.50
2017-12-31T23:52:33.858Z,9.43
2017-12-31T23:55:01.314Z,8.80
2017-12-31T23:57:28.769Z,9.47
2017-12-31T23:59:56.239Z,9.10
